首页
METAR-TAF:

METAR-TAF

机场 :

波德戈里察國際機場

波德戈里察, 蒙特內哥羅

纬度: 42-26N, 经度: 019-17E, 海拔: 53米

当前天气观测

该预报发布于19分钟前的19:30 UTC
风速7节,风向西北
温度 15°C
湿度 88%
气压 1009 hPa
能见度10公里或以上
散云层高于4000英尺
阴天层高于8000英尺

METAR: LYPG 051930Z 32007KT 9999 SCT040 OVC080 15/13 Q1009 NOSIG

时间: 21:49 (19:49 UTC)

预报

该预报发布于2小时和49分钟前的17:00 UTC
预报有效从05日的 18点(UTC)到 06日的 18点(UTC)
风速7节,风向
能见度10公里或以上
多云层高于4000英尺
短暂存在
从 05日的 18点(UTC)到 05日的 22点(UTC)
短暂存在
从 06日的 09点(UTC)到 06日的 20点(UTC)
几率 40% :
短暂存在
从 06日的 12点(UTC)到 06日的 17点(UTC)
能見度: 4000
少量云层高于3300英尺, 积雨云.
多云层高于4000英尺
雷暴, 雨

TAF: LYPG 051700Z 0518/0618 36007KT 9999 BKN040 BKN80 TX24/0613Z TN14/0603Z TEMPO 0518/0522 RA TEMPO 0609/0620 RA PROB40 TEMPO 0612/0617 4000 TSRA FEW033CB BKN040

超过4000个机场的气象观测和天气预报(METAR&TAF报告)。

可查询的气象台以黄色和红色小点在地图上表示。

将鼠标移到小点上方,可查看气象台名称。

然后点击查看天气观测和预报。

如需切换地图:点击带黑十字的绿色按钮放大地图;点击带横线的绿色按钮缩小地图;或者点击绿色箭头查看邻近地区的地图。


METAR-TAF: